sensor_id;sensor_type;location;lat;lon;timestamp;P1;durP1;ratioP1;P2;durP2;ratioP2
37641;SDS011;23486;51.956;5.888;2023-01-23T00:00:40;33.10;;;19.08;;
37641;SDS011;23486;51.956;5.888;2023-01-23T00:03:10;33.88;;;17.75;;
37641;SDS011;23486;51.956;5.888;2023-01-23T00:05:36;36.60;;;17.30;;
37641;SDS011;23486;51.956;5.888;2023-01-23T00:08:01;37.85;;;17.20;;
37641;SDS011;23486;51.956;5.888;2023-01-23T00:10:27;36.55;;;17.48;;
37641;SDS011;23486;51.956;5.888;2023-01-23T00:12:52;36.88;;;18.88;;
37641;SDS011;23486;51.956;5.888;2023-01-23T00:15:18;38.55;;;18.40;;
37641;SDS011;23486;51.956;5.888;2023-01-23T00:17:44;34.05;;;18.10;;
37641;SDS011;23486;51.956;5.888;2023-01-23T00:20:10;41.50;;;19.75;;
37641;SDS011;23486;51.956;5.888;2023-01-23T00:22:39;48.53;;;20.02;;
37641;SDS011;23486;51.956;5.888;2023-01-23T00:25:05;41.38;;;19.85;;
37641;SDS011;23486;51.956;5.888;2023-01-23T00:27:32;42.17;;;20.05;;
37641;SDS011;23486;51.956;5.888;2023-01-23T00:29:58;36.25;;;19.25;;
37641;SDS011;23486;51.956;5.888;2023-01-23T00:32:23;40.05;;;19.00;;
37641;SDS011;23486;51.956;5.888;2023-01-23T00:34:49;36.67;;;20.95;;
37641;SDS011;23486;51.956;5.888;2023-01-23T00:37:15;36.20;;;20.25;;
37641;SDS011;23486;51.956;5.888;2023-01-23T00:39:41;46.30;;;22.85;;
37641;SDS011;23486;51.956;5.888;2023-01-23T00:42:07;39.55;;;21.73;;
37641;SDS011;23486;51.956;5.888;2023-01-23T00:44:32;38.72;;;20.90;;
37641;SDS011;23486;51.956;5.888;2023-01-23T00:46:58;44.17;;;18.98;;
37641;SDS011;23486;51.956;5.888;2023-01-23T00:49:24;41.13;;;19.38;;
37641;SDS011;23486;51.956;5.888;2023-01-23T00:51:50;40.95;;;19.60;;
37641;SDS011;23486;51.956;5.888;2023-01-23T00:54:18;41.58;;;19.77;;
37641;SDS011;23486;51.956;5.888;2023-01-23T00:56:45;34.83;;;17.15;;
37641;SDS011;23486;51.956;5.888;2023-01-23T00:59:11;34.40;;;17.58;;
37641;SDS011;23486;51.956;5.888;2023-01-23T01:01:36;36.20;;;18.67;;
37641;SDS011;23486;51.956;5.888;2023-01-23T01:04:02;42.17;;;19.98;;
37641;SDS011;23486;51.956;5.888;2023-01-23T01:06:28;38.95;;;20.92;;
37641;SDS011;23486;51.956;5.888;2023-01-23T01:08:54;46.33;;;23.08;;
37641;SDS011;23486;51.956;5.888;2023-01-23T01:11:21;39.25;;;20.70;;
37641;SDS011;23486;51.956;5.888;2023-01-23T01:13:47;47.92;;;24.33;;
37641;SDS011;23486;51.956;5.888;2023-01-23T01:16:12;46.85;;;22.15;;
37641;SDS011;23486;51.956;5.888;2023-01-23T01:18:38;48.13;;;24.25;;
37641;SDS011;23486;51.956;5.888;2023-01-23T01:21:05;42.72;;;20.35;;
37641;SDS011;23486;51.956;5.888;2023-01-23T01:23:32;48.95;;;22.63;;
37641;SDS011;23486;51.956;5.888;2023-01-23T01:25:58;41.38;;;19.38;;
37641;SDS011;23486;51.956;5.888;2023-01-23T01:28:24;44.80;;;21.13;;
37641;SDS011;23486;51.956;5.888;2023-01-23T01:30:52;37.67;;;19.88;;
37641;SDS011;23486;51.956;5.888;2023-01-23T01:33:17;39.15;;;20.27;;
37641;SDS011;23486;51.956;5.888;2023-01-23T01:35:43;33.25;;;18.00;;
37641;SDS011;23486;51.956;5.888;2023-01-23T01:38:09;35.95;;;17.55;;
37641;SDS011;23486;51.956;5.888;2023-01-23T01:40:34;39.67;;;21.23;;
37641;SDS011;23486;51.956;5.888;2023-01-23T01:43:05;52.08;;;24.25;;
37641;SDS011;23486;51.956;5.888;2023-01-23T01:48:41;40.85;;;21.00;;
37641;SDS011;23486;51.956;5.888;2023-01-23T01:56:44;43.55;;;19.48;;
37641;SDS011;23486;51.956;5.888;2023-01-23T01:59:14;39.88;;;19.77;;
37641;SDS011;23486;51.956;5.888;2023-01-23T02:01:40;39.40;;;18.83;;
37641;SDS011;23486;51.956;5.888;2023-01-23T02:04:13;39.63;;;18.08;;
37641;SDS011;23486;51.956;5.888;2023-01-23T02:06:39;40.35;;;18.33;;
37641;SDS011;23486;51.956;5.888;2023-01-23T02:09:15;42.63;;;19.25;;
37641;SDS011;23486;51.956;5.888;2023-01-23T02:11:45;50.28;;;24.55;;
37641;SDS011;23486;51.956;5.888;2023-01-23T02:14:11;45.05;;;22.25;;
37641;SDS011;23486;51.956;5.888;2023-01-23T02:16:38;38.58;;;20.42;;
37641;SDS011;23486;51.956;5.888;2023-01-23T02:19:32;42.70;;;21.58;;
37641;SDS011;23486;51.956;5.888;2023-01-23T02:22:04;52.40;;;22.90;;
37641;SDS011;23486;51.956;5.888;2023-01-23T02:25:34;43.80;;;19.83;;
37641;SDS011;23486;51.956;5.888;2023-01-23T02:27:47;37.55;;;19.13;;
37641;SDS011;23486;51.956;5.888;2023-01-23T02:30:13;47.45;;;20.00;;
37641;SDS011;23486;51.956;5.888;2023-01-23T02:32:40;40.75;;;19.50;;
37641;SDS011;23486;51.956;5.888;2023-01-23T02:35:10;44.80;;;20.23;;
37641;SDS011;23486;51.956;5.888;2023-01-23T02:37:44;40.83;;;18.92;;
37641;SDS011;23486;51.956;5.888;2023-01-23T02:40:11;39.33;;;18.42;;
37641;SDS011;23486;51.956;5.888;2023-01-23T02:42:38;43.60;;;21.88;;
37641;SDS011;23486;51.956;5.888;2023-01-23T02:45:09;38.25;;;19.60;;
37641;SDS011;23486;51.956;5.888;2023-01-23T02:47:35;38.88;;;21.05;;
37641;SDS011;23486;51.956;5.888;2023-01-23T02:50:01;43.47;;;19.80;;
37641;SDS011;23486;51.956;5.888;2023-01-23T02:52:26;44.08;;;22.40;;
37641;SDS011;23486;51.956;5.888;2023-01-23T02:54:53;46.10;;;22.98;;
37641;SDS011;23486;51.956;5.888;2023-01-23T02:57:19;52.53;;;23.95;;
37641;SDS011;23486;51.956;5.888;2023-01-23T02:59:45;39.13;;;20.95;;
37641;SDS011;23486;51.956;5.888;2023-01-23T03:02:29;40.92;;;20.52;;
37641;SDS011;23486;51.956;5.888;2023-01-23T03:04:55;41.35;;;22.25;;
37641;SDS011;23486;51.956;5.888;2023-01-23T03:07:20;42.45;;;22.13;;
37641;SDS011;23486;51.956;5.888;2023-01-23T03:09:46;47.72;;;25.77;;
37641;SDS011;23486;51.956;5.888;2023-01-23T03:12:12;44.00;;;22.35;;
37641;SDS011;23486;51.956;5.888;2023-01-23T03:14:39;46.95;;;24.45;;
37641;SDS011;23486;51.956;5.888;2023-01-23T03:17:05;53.45;;;25.63;;
37641;SDS011;23486;51.956;5.888;2023-01-23T03:19:31;52.90;;;26.63;;
37641;SDS011;23486;51.956;5.888;2023-01-23T03:21:57;51.17;;;24.67;;
37641;SDS011;23486;51.956;5.888;2023-01-23T03:24:26;41.20;;;22.73;;
37641;SDS011;23486;51.956;5.888;2023-01-23T03:29:24;42.65;;;21.13;;
37641;SDS011;23486;51.956;5.888;2023-01-23T03:32:09;46.10;;;21.23;;
37641;SDS011;23486;51.956;5.888;2023-01-23T03:34:36;46.78;;;22.65;;
37641;SDS011;23486;51.956;5.888;2023-01-23T03:37:03;40.92;;;22.33;;
37641;SDS011;23486;51.956;5.888;2023-01-23T03:39:31;42.35;;;19.67;;
37641;SDS011;23486;51.956;5.888;2023-01-23T03:42:16;42.03;;;21.75;;
37641;SDS011;23486;51.956;5.888;2023-01-23T03:44:42;46.55;;;20.98;;
37641;SDS011;23486;51.956;5.888;2023-01-23T03:47:08;41.53;;;21.40;;
37641;SDS011;23486;51.956;5.888;2023-01-23T03:49:34;38.53;;;20.20;;
37641;SDS011;23486;51.956;5.888;2023-01-23T03:52:00;43.65;;;24.05;;
37641;SDS011;23486;51.956;5.888;2023-01-23T03:54:26;37.25;;;20.73;;
37641;SDS011;23486;51.956;5.888;2023-01-23T03:56:51;47.30;;;23.60;;
37641;SDS011;23486;51.956;5.888;2023-01-23T03:59:17;43.42;;;22.85;;
37641;SDS011;23486;51.956;5.888;2023-01-23T04:01:43;48.38;;;23.45;;
37641;SDS011;23486;51.956;5.888;2023-01-23T04:04:08;42.03;;;23.15;;
37641;SDS011;23486;51.956;5.888;2023-01-23T04:06:34;40.60;;;22.00;;
37641;SDS011;23486;51.956;5.888;2023-01-23T04:08:59;41.47;;;21.55;;
37641;SDS011;23486;51.956;5.888;2023-01-23T04:11:25;48.75;;;24.30;;
37641;SDS011;23486;51.956;5.888;2023-01-23T04:13:52;55.97;;;26.27;;
37641;SDS011;23486;51.956;5.888;2023-01-23T04:16:18;43.15;;;23.02;;
37641;SDS011;23486;51.956;5.888;2023-01-23T04:18:46;44.08;;;23.45;;
37641;SDS011;23486;51.956;5.888;2023-01-23T04:21:11;48.85;;;23.58;;
37641;SDS011;23486;51.956;5.888;2023-01-23T04:23:39;41.38;;;21.85;;
37641;SDS011;23486;51.956;5.888;2023-01-23T04:26:05;40.95;;;21.63;;
37641;SDS011;23486;51.956;5.888;2023-01-23T04:28:31;37.95;;;19.63;;
37641;SDS011;23486;51.956;5.888;2023-01-23T04:30:56;42.63;;;22.42;;
37641;SDS011;23486;51.956;5.888;2023-01-23T04:33:22;41.35;;;22.67;;
37641;SDS011;23486;51.956;5.888;2023-01-23T04:35:58;44.83;;;22.27;;
37641;SDS011;23486;51.956;5.888;2023-01-23T04:38:26;47.03;;;24.05;;
37641;SDS011;23486;51.956;5.888;2023-01-23T04:40:53;36.92;;;19.73;;
37641;SDS011;23486;51.956;5.888;2023-01-23T04:43:19;39.58;;;21.80;;
37641;SDS011;23486;51.956;5.888;2023-01-23T04:45:45;45.05;;;23.30;;
37641;SDS011;23486;51.956;5.888;2023-01-23T04:48:13;45.45;;;23.92;;
37641;SDS011;23486;51.956;5.888;2023-01-23T04:50:39;39.95;;;19.67;;
37641;SDS011;23486;51.956;5.888;2023-01-23T04:53:04;47.15;;;22.55;;
37641;SDS011;23486;51.956;5.888;2023-01-23T04:55:30;43.22;;;23.52;;
37641;SDS011;23486;51.956;5.888;2023-01-23T04:57:56;43.60;;;22.33;;
37641;SDS011;23486;51.956;5.888;2023-01-23T05:00:21;48.78;;;22.52;;
37641;SDS011;23486;51.956;5.888;2023-01-23T05:02:47;39.47;;;20.65;;
37641;SDS011;23486;51.956;5.888;2023-01-23T05:05:14;35.53;;;20.10;;
37641;SDS011;23486;51.956;5.888;2023-01-23T05:07:42;42.13;;;21.33;;
37641;SDS011;23486;51.956;5.888;2023-01-23T05:10:08;42.20;;;21.33;;
37641;SDS011;23486;51.956;5.888;2023-01-23T05:12:34;41.92;;;22.00;;
37641;SDS011;23486;51.956;5.888;2023-01-23T05:15:00;35.42;;;19.80;;
37641;SDS011;23486;51.956;5.888;2023-01-23T05:17:25;38.47;;;20.25;;
37641;SDS011;23486;51.956;5.888;2023-01-23T05:19:51;41.88;;;20.75;;
37641;SDS011;23486;51.956;5.888;2023-01-23T05:22:17;41.95;;;20.55;;
37641;SDS011;23486;51.956;5.888;2023-01-23T05:24:42;32.40;;;19.08;;
37641;SDS011;23486;51.956;5.888;2023-01-23T05:27:08;36.05;;;18.45;;
37641;SDS011;23486;51.956;5.888;2023-01-23T05:29:34;34.20;;;19.02;;
37641;SDS011;23486;51.956;5.888;2023-01-23T05:32:00;43.50;;;24.05;;
37641;SDS011;23486;51.956;5.888;2023-01-23T05:34:27;43.38;;;25.10;;
37641;SDS011;23486;51.956;5.888;2023-01-23T05:36:53;47.80;;;25.33;;
37641;SDS011;23486;51.956;5.888;2023-01-23T05:39:18;46.65;;;25.55;;
37641;SDS011;23486;51.956;5.888;2023-01-23T05:41:44;50.55;;;25.80;;
37641;SDS011;23486;51.956;5.888;2023-01-23T05:44:10;47.20;;;24.63;;
37641;SDS011;23486;51.956;5.888;2023-01-23T05:46:35;44.40;;;24.00;;
37641;SDS011;23486;51.956;5.888;2023-01-23T05:49:01;45.20;;;22.00;;
37641;SDS011;23486;51.956;5.888;2023-01-23T05:51:27;42.45;;;22.98;;
37641;SDS011;23486;51.956;5.888;2023-01-23T05:53:56;41.35;;;24.05;;
37641;SDS011;23486;51.956;5.888;2023-01-23T05:56:23;41.50;;;23.65;;
37641;SDS011;23486;51.956;5.888;2023-01-23T05:58:49;43.95;;;23.33;;
37641;SDS011;23486;51.956;5.888;2023-01-23T06:01:15;46.97;;;23.67;;
37641;SDS011;23486;51.956;5.888;2023-01-23T06:03:40;43.85;;;25.98;;
37641;SDS011;23486;51.956;5.888;2023-01-23T06:06:06;46.42;;;23.67;;
37641;SDS011;23486;51.956;5.888;2023-01-23T06:08:32;41.28;;;23.10;;
37641;SDS011;23486;51.956;5.888;2023-01-23T06:10:57;42.20;;;22.02;;
37641;SDS011;23486;51.956;5.888;2023-01-23T06:13:24;51.10;;;26.10;;
37641;SDS011;23486;51.956;5.888;2023-01-23T06:15:50;43.70;;;24.83;;
37641;SDS011;23486;51.956;5.888;2023-01-23T06:18:16;39.58;;;21.88;;
37641;SDS011;23486;51.956;5.888;2023-01-23T06:20:42;35.13;;;20.58;;
37641;SDS011;23486;51.956;5.888;2023-01-23T06:23:07;33.30;;;19.83;;
37641;SDS011;23486;51.956;5.888;2023-01-23T06:25:33;42.08;;;21.88;;
37641;SDS011;23486;51.956;5.888;2023-01-23T06:28:00;36.35;;;20.90;;
37641;SDS011;23486;51.956;5.888;2023-01-23T06:30:25;34.83;;;19.67;;
37641;SDS011;23486;51.956;5.888;2023-01-23T06:32:51;34.42;;;18.75;;
37641;SDS011;23486;51.956;5.888;2023-01-23T06:35:16;46.50;;;24.35;;
37641;SDS011;23486;51.956;5.888;2023-01-23T06:37:42;38.95;;;22.48;;
37641;SDS011;23486;51.956;5.888;2023-01-23T06:40:08;42.33;;;23.83;;
37641;SDS011;23486;51.956;5.888;2023-01-23T06:42:37;45.00;;;23.60;;
37641;SDS011;23486;51.956;5.888;2023-01-23T06:45:04;39.88;;;22.65;;
37641;SDS011;23486;51.956;5.888;2023-01-23T06:47:31;46.88;;;24.30;;
37641;SDS011;23486;51.956;5.888;2023-01-23T06:49:56;39.00;;;23.13;;
37641;SDS011;23486;51.956;5.888;2023-01-23T06:52:22;41.67;;;22.00;;
37641;SDS011;23486;51.956;5.888;2023-01-23T06:54:48;51.83;;;28.05;;
37641;SDS011;23486;51.956;5.888;2023-01-23T06:57:13;50.60;;;27.48;;
37641;SDS011;23486;51.956;5.888;2023-01-23T06:59:39;49.97;;;25.92;;
37641;SDS011;23486;51.956;5.888;2023-01-23T07:02:05;49.60;;;27.42;;
37641;SDS011;23486;51.956;5.888;2023-01-23T07:04:31;49.92;;;26.45;;
37641;SDS011;23486;51.956;5.888;2023-01-23T07:06:57;44.25;;;24.60;;
37641;SDS011;23486;51.956;5.888;2023-01-23T07:09:22;46.72;;;24.42;;
37641;SDS011;23486;51.956;5.888;2023-01-23T07:11:48;51.53;;;25.65;;
37641;SDS011;23486;51.956;5.888;2023-01-23T07:14:14;48.05;;;27.00;;
37641;SDS011;23486;51.956;5.888;2023-01-23T07:16:39;40.92;;;23.98;;
37641;SDS011;23486;51.956;5.888;2023-01-23T07:19:05;45.92;;;25.05;;
37641;SDS011;23486;51.956;5.888;2023-01-23T07:21:31;45.78;;;25.73;;
37641;SDS011;23486;51.956;5.888;2023-01-23T07:23:57;45.20;;;24.95;;
37641;SDS011;23486;51.956;5.888;2023-01-23T07:26:23;54.63;;;27.40;;
37641;SDS011;23486;51.956;5.888;2023-01-23T07:28:49;55.70;;;28.85;;
37641;SDS011;23486;51.956;5.888;2023-01-23T07:31:14;49.85;;;26.55;;
37641;SDS011;23486;51.956;5.888;2023-01-23T07:33:40;44.20;;;25.88;;
37641;SDS011;23486;51.956;5.888;2023-01-23T07:36:06;55.28;;;28.63;;
37641;SDS011;23486;51.956;5.888;2023-01-23T07:38:32;39.80;;;23.33;;
37641;SDS011;23486;51.956;5.888;2023-01-23T07:40:59;42.67;;;23.85;;
37641;SDS011;23486;51.956;5.888;2023-01-23T07:43:25;39.45;;;23.10;;
37641;SDS011;23486;51.956;5.888;2023-01-23T07:45:51;48.47;;;24.73;;
37641;SDS011;23486;51.956;5.888;2023-01-23T07:48:16;42.53;;;22.33;;
37641;SDS011;23486;51.956;5.888;2023-01-23T07:50:42;40.13;;;22.40;;
37641;SDS011;23486;51.956;5.888;2023-01-23T07:53:08;36.58;;;21.90;;
37641;SDS011;23486;51.956;5.888;2023-01-23T07:55:33;38.53;;;20.60;;
37641;SDS011;23486;51.956;5.888;2023-01-23T07:58:02;36.53;;;20.73;;
37641;SDS011;23486;51.956;5.888;2023-01-23T08:00:27;41.03;;;22.08;;
37641;SDS011;23486;51.956;5.888;2023-01-23T08:02:53;36.00;;;21.27;;
37641;SDS011;23486;51.956;5.888;2023-01-23T08:05:19;35.35;;;19.67;;
37641;SDS011;23486;51.956;5.888;2023-01-23T08:07:45;32.85;;;19.00;;
37641;SDS011;23486;51.956;5.888;2023-01-23T08:10:10;33.47;;;19.45;;
37641;SDS011;23486;51.956;5.888;2023-01-23T08:12:36;38.22;;;20.55;;
37641;SDS011;23486;51.956;5.888;2023-01-23T08:15:02;39.03;;;21.92;;
37641;SDS011;23486;51.956;5.888;2023-01-23T08:17:28;38.00;;;21.67;;
37641;SDS011;23486;51.956;5.888;2023-01-23T08:19:54;45.78;;;24.52;;
37641;SDS011;23486;51.956;5.888;2023-01-23T08:22:20;45.50;;;22.10;;
37641;SDS011;23486;51.956;5.888;2023-01-23T08:24:45;37.90;;;22.88;;
37641;SDS011;23486;51.956;5.888;2023-01-23T08:27:12;37.13;;;19.58;;
37641;SDS011;23486;51.956;5.888;2023-01-23T08:29:38;34.38;;;20.15;;
37641;SDS011;23486;51.956;5.888;2023-01-23T08:32:03;35.97;;;20.55;;
37641;SDS011;23486;51.956;5.888;2023-01-23T08:34:29;38.22;;;21.80;;
37641;SDS011;23486;51.956;5.888;2023-01-23T08:36:55;40.75;;;21.85;;
37641;SDS011;23486;51.956;5.888;2023-01-23T08:39:20;36.80;;;19.83;;
37641;SDS011;23486;51.956;5.888;2023-01-23T08:41:46;32.97;;;20.50;;
37641;SDS011;23486;51.956;5.888;2023-01-23T08:44:18;33.83;;;17.98;;
37641;SDS011;23486;51.956;5.888;2023-01-23T08:46:44;38.45;;;19.40;;
37641;SDS011;23486;51.956;5.888;2023-01-23T08:49:10;32.63;;;19.75;;
37641;SDS011;23486;51.956;5.888;2023-01-23T08:51:36;39.70;;;21.80;;
37641;SDS011;23486;51.956;5.888;2023-01-23T08:54:01;37.95;;;19.98;;
37641;SDS011;23486;51.956;5.888;2023-01-23T08:56:27;35.83;;;21.25;;
37641;SDS011;23486;51.956;5.888;2023-01-23T08:58:53;34.47;;;20.45;;
37641;SDS011;23486;51.956;5.888;2023-01-23T09:01:19;32.92;;;20.25;;
37641;SDS011;23486;51.956;5.888;2023-01-23T09:03:46;35.88;;;20.60;;
37641;SDS011;23486;51.956;5.888;2023-01-23T09:06:12;38.33;;;20.88;;
37641;SDS011;23486;51.956;5.888;2023-01-23T09:08:39;34.75;;;19.80;;
37641;SDS011;23486;51.956;5.888;2023-01-23T09:11:08;44.85;;;22.75;;
37641;SDS011;23486;51.956;5.888;2023-01-23T09:13:38;38.88;;;21.52;;
37641;SDS011;23486;51.956;5.888;2023-01-23T09:16:05;41.30;;;22.80;;
37641;SDS011;23486;51.956;5.888;2023-01-23T09:18:32;39.00;;;21.88;;
37641;SDS011;23486;51.956;5.888;2023-01-23T09:20:58;35.90;;;20.10;;
37641;SDS011;23486;51.956;5.888;2023-01-23T09:23:24;39.80;;;22.25;;
37641;SDS011;23486;51.956;5.888;2023-01-23T09:25:50;37.88;;;20.63;;
37641;SDS011;23486;51.956;5.888;2023-01-23T09:28:16;45.00;;;23.58;;
37641;SDS011;23486;51.956;5.888;2023-01-23T09:30:41;39.22;;;23.33;;
37641;SDS011;23486;51.956;5.888;2023-01-23T09:33:07;38.28;;;21.77;;
37641;SDS011;23486;51.956;5.888;2023-01-23T09:35:32;46.17;;;23.40;;
37641;SDS011;23486;51.956;5.888;2023-01-23T09:37:59;41.05;;;22.80;;
37641;SDS011;23486;51.956;5.888;2023-01-23T09:40:37;43.03;;;23.17;;
37641;SDS011;23486;51.956;5.888;2023-01-23T09:43:23;44.88;;;23.30;;
37641;SDS011;23486;51.956;5.888;2023-01-23T09:46:11;44.63;;;22.75;;
37641;SDS011;23486;51.956;5.888;2023-01-23T09:49:04;43.88;;;23.20;;
37641;SDS011;23486;51.956;5.888;2023-01-23T09:54:18;40.22;;;20.50;;
37641;SDS011;23486;51.956;5.888;2023-01-23T09:56:53;36.97;;;21.42;;
37641;SDS011;23486;51.956;5.888;2023-01-23T09:59:27;41.28;;;20.35;;
37641;SDS011;23486;51.956;5.888;2023-01-23T10:02:10;36.92;;;19.05;;
37641;SDS011;23486;51.956;5.888;2023-01-23T10:04:40;34.08;;;19.58;;
37641;SDS011;23486;51.956;5.888;2023-01-23T10:15:02;45.85;;;22.02;;
37641;SDS011;23486;51.956;5.888;2023-01-23T10:17:40;37.55;;;21.38;;
37641;SDS011;23486;51.956;5.888;2023-01-23T10:23:46;38.67;;;20.05;;
37641;SDS011;23486;51.956;5.888;2023-01-23T10:26:22;41.55;;;20.63;;
37641;SDS011;23486;51.956;5.888;2023-01-23T10:28:50;35.75;;;19.30;;
37641;SDS011;23486;51.956;5.888;2023-01-23T10:31:35;36.08;;;19.23;;
37641;SDS011;23486;51.956;5.888;2023-01-23T10:34:14;35.38;;;18.48;;
37641;SDS011;23486;51.956;5.888;2023-01-23T10:36:59;36.08;;;18.55;;
37641;SDS011;23486;51.956;5.888;2023-01-23T10:39:42;37.60;;;19.77;;
37641;SDS011;23486;51.956;5.888;2023-01-23T10:42:20;36.63;;;20.65;;
37641;SDS011;23486;51.956;5.888;2023-01-23T10:44:47;38.90;;;21.13;;
37641;SDS011;23486;51.956;5.888;2023-01-23T10:47:19;41.65;;;21.15;;
37641;SDS011;23486;51.956;5.888;2023-01-23T10:49:50;43.78;;;23.17;;
37641;SDS011;23486;51.956;5.888;2023-01-23T10:57:48;36.95;;;20.50;;
37641;SDS011;23486;51.956;5.888;2023-01-23T11:02:45;38.42;;;20.45;;
37641;SDS011;23486;51.956;5.888;2023-01-23T11:05:32;50.63;;;22.33;;
37641;SDS011;23486;51.956;5.888;2023-01-23T11:08:07;38.30;;;20.92;;
37641;SDS011;23486;51.956;5.888;2023-01-23T11:10:50;42.17;;;20.70;;
37641;SDS011;23486;51.956;5.888;2023-01-23T11:13:26;41.10;;;21.80;;
37641;SDS011;23486;51.956;5.888;2023-01-23T11:15:54;35.97;;;19.83;;
37641;SDS011;23486;51.956;5.888;2023-01-23T11:20:58;36.47;;;20.90;;
37641;SDS011;23486;51.956;5.888;2023-01-23T11:23:23;39.22;;;19.83;;
37641;SDS011;23486;51.956;5.888;2023-01-23T11:25:50;41.60;;;23.67;;
37641;SDS011;23486;51.956;5.888;2023-01-23T11:30:51;40.28;;;24.10;;
37641;SDS011;23486;51.956;5.888;2023-01-23T11:33:39;44.85;;;24.30;;
37641;SDS011;23486;51.956;5.888;2023-01-23T11:38:58;42.03;;;22.35;;
37641;SDS011;23486;51.956;5.888;2023-01-23T11:41:31;38.97;;;22.50;;
37641;SDS011;23486;51.956;5.888;2023-01-23T11:43:59;41.90;;;24.35;;
37641;SDS011;23486;51.956;5.888;2023-01-23T11:46:44;37.22;;;23.45;;
37641;SDS011;23486;51.956;5.888;2023-01-23T12:09:30;35.70;;;21.08;;
37641;SDS011;23486;51.956;5.888;2023-01-23T12:15:01;30.25;;;18.85;;
37641;SDS011;23486;51.956;5.888;2023-01-23T12:26:18;31.33;;;19.27;;
37641;SDS011;23486;51.956;5.888;2023-01-23T12:29:12;29.73;;;19.25;;
37641;SDS011;23486;51.956;5.888;2023-01-23T12:32:08;27.23;;;17.67;;
37641;SDS011;23486;51.956;5.888;2023-01-23T12:34:41;28.65;;;18.13;;
37641;SDS011;23486;51.956;5.888;2023-01-23T12:42:46;33.00;;;18.25;;
37641;SDS011;23486;51.956;5.888;2023-01-23T12:45:29;34.75;;;18.75;;
37641;SDS011;23486;51.956;5.888;2023-01-23T12:48:18;29.45;;;18.05;;
37641;SDS011;23486;51.956;5.888;2023-01-23T12:50:55;33.78;;;21.20;;
37641;SDS011;23486;51.956;5.888;2023-01-23T12:53:25;31.63;;;18.95;;
37641;SDS011;23486;51.956;5.888;2023-01-23T12:55:58;33.20;;;19.45;;
37641;SDS011;23486;51.956;5.888;2023-01-23T12:58:28;34.72;;;20.25;;
37641;SDS011;23486;51.956;5.888;2023-01-23T13:09:02;34.97;;;20.67;;
37641;SDS011;23486;51.956;5.888;2023-01-23T13:20:24;33.15;;;20.23;;
37641;SDS011;23486;51.956;5.888;2023-01-23T13:23:30;32.92;;;19.95;;
37641;SDS011;23486;51.956;5.888;2023-01-23T13:28:39;31.17;;;19.17;;
37641;SDS011;23486;51.956;5.888;2023-01-23T13:31:06;32.70;;;19.88;;
37641;SDS011;23486;51.956;5.888;2023-01-23T13:34:48;33.05;;;19.58;;
37641;SDS011;23486;51.956;5.888;2023-01-23T13:36:55;36.35;;;21.75;;
37641;SDS011;23486;51.956;5.888;2023-01-23T13:42:35;35.38;;;20.08;;
37641;SDS011;23486;51.956;5.888;2023-01-23T13:51:20;27.35;;;17.20;;
37641;SDS011;23486;51.956;5.888;2023-01-23T13:53:48;27.63;;;18.05;;
37641;SDS011;23486;51.956;5.888;2023-01-23T13:56:34;25.52;;;15.98;;
37641;SDS011;23486;51.956;5.888;2023-01-23T13:59:11;26.30;;;16.63;;
37641;SDS011;23486;51.956;5.888;2023-01-23T14:01:52;28.00;;;15.20;;
37641;SDS011;23486;51.956;5.888;2023-01-23T14:04:50;27.10;;;16.02;;
37641;SDS011;23486;51.956;5.888;2023-01-23T14:07:37;28.25;;;15.57;;
37641;SDS011;23486;51.956;5.888;2023-01-23T14:10:43;26.23;;;15.95;;
37641;SDS011;23486;51.956;5.888;2023-01-23T14:13:16;27.20;;;14.70;;
37641;SDS011;23486;51.956;5.888;2023-01-23T14:15:49;24.73;;;15.07;;
37641;SDS011;23486;51.956;5.888;2023-01-23T14:18:42;27.55;;;16.67;;
37641;SDS011;23486;51.956;5.888;2023-01-23T14:21:22;27.55;;;15.57;;
37641;SDS011;23486;51.956;5.888;2023-01-23T14:23:51;26.10;;;15.63;;
37641;SDS011;23486;51.956;5.888;2023-01-23T14:26:20;26.55;;;14.43;;
37641;SDS011;23486;51.956;5.888;2023-01-23T14:29:00;26.63;;;16.00;;
37641;SDS011;23486;51.956;5.888;2023-01-23T14:31:42;25.27;;;15.10;;
37641;SDS011;23486;51.956;5.888;2023-01-23T14:34:19;24.40;;;14.88;;
37641;SDS011;23486;51.956;5.888;2023-01-23T14:36:48;25.15;;;13.98;;
37641;SDS011;23486;51.956;5.888;2023-01-23T14:39:31;26.10;;;15.32;;
37641;SDS011;23486;51.956;5.888;2023-01-23T14:41:59;24.77;;;13.88;;
37641;SDS011;23486;51.956;5.888;2023-01-23T14:44:33;25.23;;;15.57;;
37641;SDS011;23486;51.956;5.888;2023-01-23T14:47:17;26.13;;;15.55;;
37641;SDS011;23486;51.956;5.888;2023-01-23T14:49:52;25.70;;;15.05;;
37641;SDS011;23486;51.956;5.888;2023-01-23T14:52:28;24.05;;;13.95;;
37641;SDS011;23486;51.956;5.888;2023-01-23T14:54:55;23.17;;;14.23;;
37641;SDS011;23486;51.956;5.888;2023-01-23T14:57:22;23.50;;;14.32;;
37641;SDS011;23486;51.956;5.888;2023-01-23T14:59:49;26.17;;;15.25;;
37641;SDS011;23486;51.956;5.888;2023-01-23T15:07:55;30.60;;;17.23;;
37641;SDS011;23486;51.956;5.888;2023-01-23T15:10:45;27.98;;;15.73;;
37641;SDS011;23486;51.956;5.888;2023-01-23T15:15:58;27.23;;;15.77;;
37641;SDS011;23486;51.956;5.888;2023-01-23T15:18:26;29.55;;;16.70;;
37641;SDS011;23486;51.956;5.888;2023-01-23T15:20:55;28.95;;;17.20;;
37641;SDS011;23486;51.956;5.888;2023-01-23T15:23:29;28.00;;;16.98;;
37641;SDS011;23486;51.956;5.888;2023-01-23T15:28:56;32.47;;;18.80;;
37641;SDS011;23486;51.956;5.888;2023-01-23T15:36:48;33.92;;;18.15;;
37641;SDS011;23486;51.956;5.888;2023-01-23T15:39:58;25.63;;;15.68;;
37641;SDS011;23486;51.956;5.888;2023-01-23T15:42:33;25.75;;;16.40;;
37641;SDS011;23486;51.956;5.888;2023-01-23T15:44:59;27.60;;;16.23;;
37641;SDS011;23486;51.956;5.888;2023-01-23T15:47:34;25.00;;;14.38;;
37641;SDS011;23486;51.956;5.888;2023-01-23T15:50:00;23.75;;;14.68;;
37641;SDS011;23486;51.956;5.888;2023-01-23T15:52:27;26.92;;;15.02;;
37641;SDS011;23486;51.956;5.888;2023-01-23T15:55:10;28.10;;;16.73;;
37641;SDS011;23486;51.956;5.888;2023-01-23T15:57:37;25.33;;;15.30;;
37641;SDS011;23486;51.956;5.888;2023-01-23T16:00:18;26.88;;;15.63;;
37641;SDS011;23486;51.956;5.888;2023-01-23T16:02:51;27.85;;;16.17;;
37641;SDS011;23486;51.956;5.888;2023-01-23T16:05:32;26.95;;;16.75;;
37641;SDS011;23486;51.956;5.888;2023-01-23T16:07:59;26.90;;;15.38;;
37641;SDS011;23486;51.956;5.888;2023-01-23T16:10:34;22.90;;;14.20;;
37641;SDS011;23486;51.956;5.888;2023-01-23T16:13:02;21.55;;;12.90;;
37641;SDS011;23486;51.956;5.888;2023-01-23T16:15:32;23.50;;;13.55;;
37641;SDS011;23486;51.956;5.888;2023-01-23T16:17:59;24.25;;;14.52;;
37641;SDS011;23486;51.956;5.888;2023-01-23T16:22:58;21.40;;;13.65;;
37641;SDS011;23486;51.956;5.888;2023-01-23T16:25:27;23.30;;;14.50;;
37641;SDS011;23486;51.956;5.888;2023-01-23T16:27:55;25.05;;;14.57;;
37641;SDS011;23486;51.956;5.888;2023-01-23T16:30:23;21.20;;;13.32;;
37641;SDS011;23486;51.956;5.888;2023-01-23T16:32:51;22.52;;;13.43;;
37641;SDS011;23486;51.956;5.888;2023-01-23T16:35:17;20.35;;;13.25;;
37641;SDS011;23486;51.956;5.888;2023-01-23T16:37:45;22.67;;;14.23;;
37641;SDS011;23486;51.956;5.888;2023-01-23T16:40:16;23.75;;;14.80;;
37641;SDS011;23486;51.956;5.888;2023-01-23T16:42:45;23.30;;;14.15;;